createdAt,value
2022-09-05T00:00:06.172Z,1.88
2022-09-05T00:02:56.906Z,3.80
2022-09-05T00:05:46.550Z,2.85
2022-09-05T00:08:29.649Z,3.50
2022-09-05T00:11:39.693Z,2.42
2022-09-05T00:14:12.676Z,3.00
2022-09-05T00:17:07.107Z,1.95
2022-09-05T00:24:25.691Z,2.30
2022-09-05T00:24:35.702Z,2.60
2022-09-05T00:25:57.045Z,2.42
2022-09-05T00:28:33.628Z,3.17
2022-09-05T00:31:54.275Z,2.90
2022-09-05T00:34:18.131Z,1.83
2022-09-05T00:36:48.271Z,3.38
2022-09-05T00:39:20.990Z,3.65
2022-09-05T00:41:50.503Z,3.03
2022-09-05T00:44:21.376Z,3.22
2022-09-05T00:46:56.889Z,3.28
2022-09-05T00:49:28.691Z,2.72
2022-09-05T00:52:03.012Z,5.90
2022-09-05T00:54:54.432Z,4.25
2022-09-05T00:57:43.510Z,2.90
2022-09-05T01:00:18.354Z,3.03
2022-09-05T01:03:02.671Z,2.58
2022-09-05T01:05:44.281Z,4.50
2022-09-05T01:08:25.577Z,2.08
2022-09-05T01:11:03.310Z,2.15
2022-09-05T01:13:41.912Z,2.88
2022-09-05T01:16:22.515Z,5.65
2022-09-05T01:19:01.095Z,4.03
2022-09-05T01:21:56.092Z,4.72
2022-09-05T01:24:48.901Z,3.42
2022-09-05T01:28:08.366Z,3.58
2022-09-05T01:30:41.673Z,2.70
2022-09-05T01:33:20.179Z,4.55
2022-09-05T01:36:21.155Z,3.05
2022-09-05T01:40:10.503Z,2.42
2022-09-05T01:41:54.190Z,4.00
2022-09-05T01:44:42.605Z,2.40
2022-09-05T01:47:35.212Z,2.38
2022-09-05T01:50:16.652Z,3.20
2022-09-05T01:53:05.438Z,2.92
2022-09-05T01:56:04.475Z,2.22
2022-09-05T01:58:47.976Z,4.45
2022-09-05T02:01:32.561Z,4.57
2022-09-05T02:04:23.032Z,3.35
2022-09-05T02:07:19.257Z,4.25
2022-09-05T02:10:08.568Z,3.30
2022-09-05T02:12:56.790Z,3.17
2022-09-05T02:15:42.944Z,4.97
2022-09-05T02:18:30.332Z,2.20
2022-09-05T02:21:01.583Z,2.75
2022-09-05T02:23:41.845Z,8.20
2022-09-05T02:26:18.476Z,3.05
2022-09-05T02:28:54.845Z,1.67
2022-09-05T02:31:30.987Z,2.22
2022-09-05T02:34:08.889Z,3.05
2022-09-05T02:36:45.092Z,3.33
2022-09-05T02:45:02.266Z,1.98
2022-09-05T02:45:13.054Z,3.95
2022-09-05T02:45:30.550Z,2.80
2022-09-05T02:48:15.051Z,2.42
2022-09-05T02:57:23.281Z,3.25
2022-09-05T02:57:39.470Z,4.03
2022-09-05T02:57:41.152Z,4.00
2022-09-05T03:00:06.301Z,2.30
2022-09-05T03:02:48.586Z,2.03
2022-09-05T03:05:23.387Z,2.88
2022-09-05T03:08:23.635Z,3.10
2022-09-05T03:11:40.729Z,2.08
2022-09-05T03:14:50.281Z,3.47
2022-09-05T03:17:54.389Z,3.05
2022-09-05T03:21:08.876Z,2.38
2022-09-05T03:24:06.223Z,3.40
2022-09-05T03:27:02.465Z,2.55
2022-09-05T03:29:45.414Z,5.60
2022-09-05T03:32:53.121Z,3.70
2022-09-05T03:36:05.892Z,4.22
2022-09-05T03:39:14.576Z,2.90
2022-09-05T03:41:57.086Z,3.38
2022-09-05T03:44:44.807Z,2.25
2022-09-05T03:47:48.776Z,3.80
2022-09-05T03:52:21.388Z,2.80
2022-09-05T03:57:17.965Z,2.75
2022-09-05T03:57:26.847Z,2.28
2022-09-05T03:59:58.956Z,3.08
2022-09-05T04:04:49.945Z,4.50
2022-09-05T04:08:19.555Z,1.92
2022-09-05T04:08:33.926Z,3.72
2022-09-05T04:11:06.649Z,2.97
2022-09-05T04:13:41.664Z,5.05
2022-09-05T04:16:14.923Z,2.35
2022-09-05T04:18:47.377Z,3.28
2022-09-05T04:21:18.973Z,2.58
2022-09-05T04:23:53.789Z,2.70
2022-09-05T04:26:32.095Z,2.63
2022-09-05T04:29:10.128Z,3.47
2022-09-05T04:31:49.947Z,3.25
2022-09-05T04:34:39.702Z,2.15
2022-09-05T04:37:08.729Z,2.42
2022-09-05T04:39:37.026Z,2.47
2022-09-05T04:42:19.448Z,1.70
2022-09-05T04:44:55.890Z,3.13
2022-09-05T04:47:29.568Z,5.95
2022-09-05T04:52:55.905Z,3.30
2022-09-05T04:55:26.637Z,3.65
2022-09-05T04:57:59.598Z,3.63
2022-09-05T05:05:59.724Z,3.97
2022-09-05T05:06:10.845Z,3.10
2022-09-05T05:06:42.304Z,3.08
2022-09-05T05:09:21.665Z,3.05
2022-09-05T05:18:03.805Z,3.75
2022-09-05T05:18:06.382Z,2.67
2022-09-05T05:18:12.650Z,3.50
2022-09-05T05:20:41.571Z,2.58
2022-09-05T05:23:15.765Z,5.88
2022-09-05T05:25:48.523Z,3.47
2022-09-05T05:28:25.813Z,3.92
2022-09-05T05:31:01.899Z,2.55
2022-09-05T05:33:35.993Z,4.07
2022-09-05T05:36:08.520Z,4.70
2022-09-05T05:38:48.909Z,7.57
2022-09-05T05:41:23.467Z,6.32
2022-09-05T05:43:52.528Z,4.55
2022-09-05T05:46:32.161Z,2.97
2022-09-05T05:49:26.375Z,2.58
2022-09-05T05:52:09.296Z,4.65
2022-09-05T05:54:45.504Z,4.93
2022-09-05T05:57:34.970Z,7.68
2022-09-05T06:00:14.895Z,2.13
2022-09-05T06:03:33.976Z,6.20
2022-09-05T06:06:38.074Z,6.57
2022-09-05T06:14:49.205Z,3.00
2022-09-05T06:14:57.620Z,4.32
2022-09-05T06:16:24.968Z,2.95
2022-09-05T06:19:34.206Z,2.90
2022-09-05T06:23:08.861Z,3.67
2022-09-05T06:26:03.581Z,5.60
2022-09-05T06:28:41.314Z,2.53
2022-09-05T06:31:29.840Z,2.83
2022-09-05T06:34:33.435Z,3.83
2022-09-05T06:37:11.552Z,5.25
2022-09-05T06:39:58.458Z,3.97
2022-09-05T06:42:43.656Z,5.05
2022-09-05T06:45:27.736Z,5.28
2022-09-05T06:48:10.338Z,3.58
2022-09-05T06:51:08.450Z,2.83
2022-09-05T06:54:01.236Z,2.97
2022-09-05T06:56:45.411Z,2.85
2022-09-05T06:59:43.832Z,3.08
2022-09-05T07:02:56.649Z,2.58
2022-09-05T07:05:38.411Z,4.35
2022-09-05T07:08:34.156Z,36.90
2022-09-05T07:11:11.322Z,76.90
2022-09-05T07:14:04.366Z,63.55
2022-09-05T07:16:42.264Z,70.40
2022-09-05T07:19:26.622Z,51.35
2022-09-05T07:22:47.645Z,55.03
2022-09-05T07:25:10.236Z,49.23
2022-09-05T07:28:26.475Z,17.13
2022-09-05T07:30:34.742Z,6.63
2022-09-05T07:33:04.800Z,20.63
2022-09-05T07:35:42.254Z,11.13
2022-09-05T07:38:15.864Z,10.48
2022-09-05T07:40:51.625Z,10.20
2022-09-05T07:43:23.762Z,13.57
2022-09-05T07:46:06.138Z,3.63
2022-09-05T07:48:37.731Z,8.13
2022-09-05T07:56:54.863Z,4.70
2022-09-05T07:56:55.104Z,5.43
2022-09-05T07:57:31.273Z,6.73
2022-09-05T07:59:42.562Z,3.22
2022-09-05T08:02:13.638Z,2.92
2022-09-05T08:04:42.664Z,3.90
2022-09-05T08:07:47.117Z,1.67
2022-09-05T08:10:10.055Z,3.63
2022-09-05T08:13:00.621Z,2.28
2022-09-05T08:16:06.681Z,2.97
2022-09-05T08:18:24.863Z,3.28
2022-09-05T08:20:56.951Z,2.33
2022-09-05T08:23:48.828Z,6.78
2022-09-05T08:26:28.429Z,1.73
2022-09-05T08:29:02.767Z,2.33
2022-09-05T08:31:38.542Z,1.67
2022-09-05T08:34:18.259Z,3.22
2022-09-05T08:36:56.053Z,2.35
2022-09-05T08:39:26.973Z,3.40
2022-09-05T08:42:09.277Z,2.92
2022-09-05T08:46:47.153Z,2.78
2022-09-05T08:47:45.098Z,1.77
2022-09-05T08:50:38.361Z,3.00
2022-09-05T08:53:26.790Z,1.95
2022-09-05T08:56:10.901Z,3.05
2022-09-05T08:59:31.556Z,1.58
2022-09-05T09:02:45.348Z,5.25
2022-09-05T09:05:01.473Z,2.85
2022-09-05T09:10:43.596Z,3.80
2022-09-05T09:13:29.141Z,5.53
2022-09-05T09:16:06.303Z,3.45
2022-09-05T09:18:46.570Z,2.92
2022-09-05T09:21:25.268Z,4.78
2022-09-05T09:24:01.728Z,3.72
2022-09-05T09:26:34.032Z,3.45
2022-09-05T09:29:06.856Z,2.08
2022-09-05T09:32:02.307Z,2.28
2022-09-05T09:34:47.350Z,4.13
2022-09-05T09:37:50.406Z,2.58
2022-09-05T09:40:36.597Z,3.45
2022-09-05T09:43:09.187Z,2.22
2022-09-05T09:45:53.214Z,2.70
2022-09-05T09:48:56.837Z,2.03
2022-09-05T09:51:57.627Z,2.85
2022-09-05T09:54:56.319Z,3.60
2022-09-05T09:57:57.161Z,5.30
2022-09-05T10:00:25.816Z,3.63
2022-09-05T10:09:07.988Z,6.07
2022-09-05T10:10:45.887Z,3.00
2022-09-05T10:10:45.888Z,2.95
2022-09-05T10:13:21.797Z,6.57
2022-09-05T10:16:29.689Z,5.35
2022-09-05T10:22:50.741Z,4.55
2022-09-05T10:25:30.102Z,2.30
2022-09-05T10:28:06.377Z,4.95
2022-09-05T10:32:32.637Z,3.92
2022-09-05T10:35:13.750Z,4.30
2022-09-05T10:36:29.202Z,6.35
2022-09-05T10:39:06.848Z,3.22
2022-09-05T10:41:49.858Z,2.42
2022-09-05T10:44:25.681Z,3.13
2022-09-05T10:47:06.135Z,1.65
2022-09-05T10:49:38.641Z,1.55
2022-09-05T10:52:18.890Z,2.40
2022-09-05T10:55:18.272Z,3.72
2022-09-05T10:58:00.873Z,3.05
2022-09-05T11:02:22.648Z,3.23
2022-09-05T11:03:46.550Z,4.72
2022-09-05T11:06:24.625Z,2.05
2022-09-05T11:09:02.951Z,4.93
2022-09-05T11:11:41.137Z,4.63
2022-09-05T11:14:32.532Z,3.03
2022-09-05T11:17:10.780Z,2.60
2022-09-05T11:19:43.775Z,2.72
2022-09-05T11:22:23.468Z,3.50
2022-09-05T11:24:56.041Z,2.60
2022-09-05T11:27:32.293Z,3.08
2022-09-05T11:30:05.290Z,2.80
2022-09-05T11:39:45.536Z,4.55
2022-09-05T11:39:52.236Z,6.07
2022-09-05T11:39:53.547Z,3.38
2022-09-05T11:42:23.859Z,2.75
2022-09-05T11:45:14.480Z,3.28
2022-09-05T11:48:22.754Z,4.13
2022-09-05T11:51:33.684Z,1.52
2022-09-05T11:54:44.859Z,2.22
2022-09-05T11:57:33.346Z,2.10
2022-09-05T12:00:30.579Z,2.22
2022-09-05T12:03:08.880Z,1.77
2022-09-05T12:06:00.113Z,2.17
2022-09-05T12:08:39.517Z,2.58
2022-09-05T12:11:22.969Z,2.03
2022-09-05T12:14:01.090Z,2.42
2022-09-05T12:16:57.767Z,3.75
2022-09-05T12:19:34.819Z,2.40
2022-09-05T12:22:23.613Z,2.83
2022-09-05T12:25:26.026Z,2.78
2022-09-05T12:28:02.307Z,1.63
2022-09-05T12:31:28.314Z,1.67
2022-09-05T12:36:02.626Z,2.45
2022-09-05T12:40:43.194Z,3.05
2022-09-05T12:40:53.918Z,3.47
2022-09-05T12:42:37.269Z,1.98
2022-09-05T12:45:20.781Z,2.78
2022-09-05T12:48:04.883Z,1.73
2022-09-05T12:50:40.562Z,1.67
2022-09-05T12:53:12.285Z,3.78
2022-09-05T12:55:52.143Z,2.13
2022-09-05T13:03:03.264Z,2.88
2022-09-05T13:04:29.753Z,1.90
2022-09-05T13:07:01.450Z,1.95
2022-09-05T13:10:04.711Z,1.30
2022-09-05T13:15:03.006Z,1.60
2022-09-05T13:15:25.531Z,4.18
2022-09-05T13:18:00.336Z,2.35
2022-09-05T13:20:34.086Z,2.40
2022-09-05T13:23:07.031Z,1.70
2022-09-05T13:25:37.085Z,1.35
2022-09-05T13:28:08.436Z,1.40
2022-09-05T13:32:37.572Z,1.87
2022-09-05T13:38:17.482Z,1.30
2022-09-05T13:38:21.155Z,2.25
2022-09-05T13:39:28.156Z,2.53
2022-09-05T13:41:59.337Z,3.10
2022-09-05T13:44:29.960Z,3.92
2022-09-05T13:47:02.517Z,2.95
2022-09-05T13:49:44.743Z,1.42
2022-09-05T13:52:27.910Z,1.90
2022-09-05T13:55:12.843Z,2.60
2022-09-05T13:57:45.803Z,1.75
2022-09-05T14:00:30.012Z,2.17
2022-09-05T14:03:38.344Z,3.80
2022-09-05T14:06:46.414Z,2.35
2022-09-05T14:09:35.828Z,2.80
2022-09-05T14:12:15.558Z,1.80
2022-09-05T14:17:58.407Z,2.70
2022-09-05T14:20:49.539Z,0.93
2022-09-05T14:23:19.636Z,1.25
2022-09-05T14:25:53.331Z,3.47
2022-09-05T14:28:27.748Z,1.88
2022-09-05T14:35:47.023Z,1.35
2022-09-05T14:37:42.859Z,5.35
2022-09-05T14:37:44.972Z,1.38
2022-09-05T14:40:49.728Z,1.95
2022-09-05T14:43:34.108Z,1.55
2022-09-05T14:46:17.458Z,2.90
2022-09-05T14:49:10.723Z,1.17
2022-09-05T14:51:46.660Z,1.85
2022-09-05T15:02:38.919Z,1.67
2022-09-05T15:02:49.757Z,1.33
2022-09-05T15:03:03.569Z,1.33
2022-09-05T15:05:41.651Z,1.35
2022-09-05T15:09:01.011Z,0.82
2022-09-05T15:12:22.947Z,2.45
2022-09-05T15:13:57.997Z,2.15
2022-09-05T15:16:26.652Z,1.53
2022-09-05T15:18:56.133Z,1.98
2022-09-05T15:21:33.728Z,2.15
2022-09-05T15:24:13.682Z,2.38
2022-09-05T15:26:53.173Z,1.88
2022-09-05T15:29:24.420Z,1.45
2022-09-05T15:31:59.389Z,0.80
2022-09-05T15:34:38.473Z,2.35
2022-09-05T15:37:22.896Z,1.15
2022-09-05T15:40:01.671Z,1.90
2022-09-05T15:42:33.349Z,1.17
2022-09-05T15:47:51.056Z,1.05
2022-09-05T15:50:22.569Z,3.45
2022-09-05T15:52:55.523Z,1.90
2022-09-05T15:55:26.288Z,1.45
2022-09-05T15:57:58.852Z,1.20
2022-09-05T16:00:39.892Z,2.95
2022-09-05T16:04:53.005Z,0.80
2022-09-05T16:10:29.588Z,1.25
2022-09-05T16:10:39.493Z,1.58
2022-09-05T16:12:14.236Z,1.10
2022-09-05T16:14:40.616Z,1.17
2022-09-05T16:23:14.996Z,1.00
2022-09-05T16:23:18.642Z,2.70
2022-09-05T16:23:40.439Z,2.20
2022-09-05T16:26:10.977Z,2.15
2022-09-05T16:28:44.080Z,1.58
2022-09-05T16:31:18.801Z,2.20
2022-09-05T16:33:48.361Z,1.20
2022-09-05T16:36:20.063Z,2.10
2022-09-05T16:38:54.004Z,2.87
2022-09-05T16:41:30.902Z,2.92
2022-09-05T16:44:04.756Z,2.20
2022-09-05T16:46:39.644Z,2.30
2022-09-05T16:49:13.288Z,2.65
2022-09-05T16:51:44.999Z,1.27
2022-09-05T16:54:18.486Z,4.17
2022-09-05T16:56:48.901Z,3.00
2022-09-05T16:59:20.932Z,2.40
2022-09-05T17:02:09.145Z,1.45
2022-09-05T17:05:05.123Z,1.88
2022-09-05T17:07:58.419Z,1.33
2022-09-05T17:10:28.578Z,3.13
2022-09-05T17:12:57.351Z,2.42
2022-09-05T17:15:28.568Z,3.22
2022-09-05T17:18:22.367Z,2.38
2022-09-05T17:20:54.560Z,3.45
2022-09-05T17:29:20.922Z,2.45
2022-09-05T17:29:49.404Z,2.50
2022-09-05T17:32:42.499Z,2.55
2022-09-05T17:35:42.354Z,3.33
2022-09-05T17:38:43.712Z,2.15
2022-09-05T17:41:52.632Z,2.50
2022-09-05T17:44:26.094Z,1.02
2022-09-05T17:47:14.665Z,3.30
2022-09-05T17:49:45.053Z,2.17
2022-09-05T17:52:24.372Z,2.00
2022-09-05T17:54:56.385Z,3.00
2022-09-05T17:57:40.057Z,3.03
2022-09-05T18:00:50.494Z,4.57
2022-09-05T18:04:11.344Z,3.17
2022-09-05T18:07:00.474Z,2.97
2022-09-05T18:10:05.973Z,3.33
2022-09-05T18:13:31.252Z,2.17
2022-09-05T18:16:10.367Z,2.00
2022-09-05T18:19:29.054Z,2.28
2022-09-05T18:21:48.335Z,1.83
2022-09-05T18:27:37.878Z,3.47
2022-09-05T18:30:13.001Z,1.55
2022-09-05T18:32:45.483Z,2.00
2022-09-05T18:35:37.201Z,2.40
2022-09-05T18:38:38.763Z,2.42
2022-09-05T18:41:22.078Z,2.08
2022-09-05T18:44:12.598Z,4.13
2022-09-05T18:46:46.294Z,4.55
2022-09-05T18:50:15.805Z,4.22
2022-09-05T18:52:14.131Z,2.53
2022-09-05T18:54:44.785Z,2.38
2022-09-05T18:57:31.021Z,4.88
2022-09-05T19:00:10.303Z,2.28
2022-09-05T19:02:58.642Z,1.85
2022-09-05T19:05:46.125Z,1.60
2022-09-05T19:08:26.802Z,2.88
2022-09-05T19:10:59.575Z,2.70
2022-09-05T19:13:32.257Z,1.77
2022-09-05T19:16:18.487Z,2.75
2022-09-05T19:19:16.446Z,1.65
2022-09-05T19:21:56.271Z,2.13
2022-09-05T19:24:44.687Z,2.50
2022-09-05T19:29:42.418Z,2.33
2022-09-05T19:37:08.359Z,4.38
2022-09-05T19:37:09.251Z,4.65
2022-09-05T19:37:10.873Z,8.68
2022-09-05T19:40:22.513Z,4.90
2022-09-05T19:47:27.006Z,4.97
2022-09-05T19:47:55.889Z,6.18
2022-09-05T19:47:56.351Z,5.70
2022-09-05T19:50:11.268Z,2.63
2022-09-05T19:52:40.103Z,4.85
2022-09-05T19:55:20.303Z,3.75
2022-09-05T19:57:56.963Z,5.07
2022-09-05T20:00:39.958Z,3.80
2022-09-05T20:03:07.705Z,2.90
2022-09-05T20:05:39.909Z,2.85
2022-09-05T20:08:13.156Z,4.03
2022-09-05T20:10:41.735Z,2.63
2022-09-05T20:13:23.255Z,4.95
2022-09-05T20:15:52.271Z,2.33
2022-09-05T20:18:22.677Z,5.38
2022-09-05T20:20:54.397Z,2.50
2022-09-05T20:23:25.232Z,3.38
2022-09-05T20:25:55.464Z,3.58
2022-09-05T20:28:25.620Z,2.72
2022-09-05T20:30:55.612Z,3.53
2022-09-05T20:33:28.719Z,2.00
2022-09-05T20:43:14.374Z,2.35
2022-09-05T20:43:19.457Z,4.25
2022-09-05T20:43:21.749Z,4.20
2022-09-05T20:44:39.711Z,3.58
2022-09-05T20:52:13.843Z,4.07
2022-09-05T20:54:21.144Z,2.47
2022-09-05T20:54:21.730Z,3.25
2022-09-05T20:55:42.013Z,4.30
2022-09-05T20:58:12.701Z,4.70
2022-09-05T21:01:19.666Z,2.85
2022-09-05T21:03:40.673Z,4.68
2022-09-05T21:06:21.868Z,3.00
2022-09-05T21:08:52.623Z,5.28
2022-09-05T21:11:30.383Z,3.78
2022-09-05T21:14:01.980Z,2.30
2022-09-05T21:16:32.676Z,3.47
2022-09-05T21:19:00.595Z,4.13
2022-09-05T21:21:30.446Z,2.47
2022-09-05T21:24:17.956Z,3.40
2022-09-05T21:26:48.840Z,5.30
2022-09-05T21:29:23.422Z,5.13
2022-09-05T21:32:00.106Z,3.75
2022-09-05T21:34:32.136Z,6.60
2022-09-05T21:37:06.447Z,4.68
2022-09-05T21:39:39.950Z,6.50
2022-09-05T21:42:44.263Z,4.17
2022-09-05T21:47:44.821Z,4.75
2022-09-05T21:47:53.054Z,4.03
2022-09-05T21:50:31.599Z,3.17
2022-09-05T21:54:50.332Z,7.95
2022-09-05T21:59:24.826Z,4.38
2022-09-05T21:59:33.206Z,3.72
2022-09-05T22:01:51.754Z,2.28
2022-09-05T22:04:17.412Z,3.88
2022-09-05T22:06:48.537Z,3.38
2022-09-05T22:09:17.191Z,4.05
2022-09-05T22:11:50.242Z,4.47
2022-09-05T22:14:18.854Z,4.30
2022-09-05T22:16:47.315Z,3.13
2022-09-05T22:19:17.648Z,2.88
2022-09-05T22:21:45.561Z,5.53
2022-09-05T22:24:14.000Z,5.25
2022-09-05T22:27:01.266Z,2.50
2022-09-05T22:29:35.317Z,3.08
2022-09-05T22:32:03.967Z,2.88
2022-09-05T22:34:31.673Z,2.42
2022-09-05T22:36:59.316Z,3.38
2022-09-05T22:39:36.490Z,10.60
2022-09-05T22:42:10.407Z,3.58
2022-09-05T22:47:08.603Z,3.13
2022-09-05T22:49:37.045Z,3.03
2022-09-05T22:52:05.636Z,5.97
2022-09-05T22:54:33.422Z,2.90
2022-09-05T22:57:01.164Z,2.50
2022-09-05T22:59:28.767Z,4.18
2022-09-05T23:01:57.812Z,3.28
2022-09-05T23:04:25.815Z,5.43
2022-09-05T23:06:53.610Z,3.67
2022-09-05T23:09:21.345Z,5.28
2022-09-05T23:11:49.141Z,3.25
2022-09-05T23:14:16.729Z,2.92
2022-09-05T23:16:44.338Z,2.53
2022-09-05T23:19:13.282Z,2.80
2022-09-05T23:21:40.881Z,4.25
2022-09-05T23:24:08.615Z,4.18
2022-09-05T23:26:36.208Z,3.33
2022-09-05T23:29:03.829Z,3.10
2022-09-05T23:31:31.552Z,2.67
2022-09-05T23:33:59.232Z,3.55
2022-09-05T23:36:28.196Z,5.53
2022-09-05T23:38:56.103Z,4.55
2022-09-05T23:41:23.719Z,6.05
2022-09-05T23:43:51.350Z,5.07
2022-09-05T23:46:19.079Z,3.45
2022-09-05T23:48:46.844Z,4.07
2022-09-05T23:51:14.501Z,5.53
2022-09-05T23:53:44.124Z,2.72
2022-09-05T23:56:12.169Z,5.25
2022-09-05T23:58:40.192Z,3.60
